createdAt,value
2019-04-22T00:00:41.297Z,3.77
2019-04-22T00:03:14.112Z,3.98
2019-04-22T00:06:00.398Z,4.15
2019-04-22T00:08:35.703Z,3.65
2019-04-22T00:11:13.949Z,3.85
2019-04-22T00:13:46.836Z,4.30
2019-04-22T00:16:10.466Z,4.40
2019-04-22T00:18:59.111Z,3.80
2019-04-22T00:21:22.129Z,4.17
2019-04-22T00:23:47.028Z,3.83
2019-04-22T00:28:53.284Z,4.20
2019-04-22T00:31:46.191Z,4.28
2019-04-22T00:34:16.698Z,4.78
2019-04-22T00:36:54.298Z,4.62
2019-04-22T00:39:28.376Z,4.75
2019-04-22T00:42:04.959Z,5.40
2019-04-22T00:44:31.806Z,4.87
2019-04-22T00:47:07.415Z,5.40
2019-04-22T00:52:21.835Z,4.92
2019-04-22T00:54:39.599Z,5.25
2019-04-22T00:57:08.763Z,4.97
2019-04-22T00:59:40.432Z,4.95
2019-04-22T01:02:18.112Z,4.87
2019-04-22T01:04:51.152Z,5.17
2019-04-22T01:07:11.624Z,5.00
2019-04-22T01:09:47.308Z,4.60
2019-04-22T01:12:16.633Z,4.80
2019-04-22T01:14:48.580Z,5.03
2019-04-22T01:17:12.032Z,4.50
2019-04-22T01:19:52.587Z,4.72
2019-04-22T01:22:19.081Z,5.28
2019-04-22T01:24:48.509Z,5.00
2019-04-22T01:27:11.423Z,5.00
2019-04-22T01:29:41.001Z,4.90
2019-04-22T01:32:00.362Z,5.50
2019-04-22T01:34:49.016Z,4.83
2019-04-22T01:37:19.779Z,5.25
2019-04-22T01:40:00.127Z,5.12
2019-04-22T01:42:35.713Z,5.05
2019-04-22T01:44:58.157Z,5.17
2019-04-22T01:47:50.490Z,5.30
2019-04-22T01:50:10.153Z,5.28
2019-04-22T01:52:41.637Z,5.08
2019-04-22T01:55:12.639Z,5.67
2019-04-22T01:57:35.042Z,5.42
2019-04-22T02:00:00.941Z,5.60
2019-04-22T02:02:42.239Z,5.75
2019-04-22T02:05:16.154Z,5.22
2019-04-22T02:07:42.100Z,5.50
2019-04-22T02:10:19.998Z,5.40
2019-04-22T02:12:45.467Z,5.45
2019-04-22T02:15:18.668Z,5.30
2019-04-22T02:18:11.016Z,5.00
2019-04-22T02:20:23.185Z,5.55
2019-04-22T02:23:45.856Z,5.78
2019-04-22T02:34:01.827Z,5.25
2019-04-22T02:38:51.656Z,4.85
2019-04-22T02:51:20.405Z,6.17
2019-04-22T02:56:27.453Z,5.28
2019-04-22T02:59:04.258Z,5.70
2019-04-22T03:01:31.548Z,5.40
2019-04-22T03:09:07.244Z,5.22
2019-04-22T03:11:31.165Z,5.70
2019-04-22T03:16:33.319Z,5.20
2019-04-22T03:19:02.865Z,5.65
2019-04-22T03:21:34.345Z,5.58
2019-04-22T03:24:17.531Z,5.33
2019-04-22T03:26:49.037Z,4.95
2019-04-22T03:29:17.805Z,5.20
2019-04-22T03:32:17.529Z,4.92
2019-04-22T03:35:09.707Z,5.05
2019-04-22T03:39:38.002Z,5.35
2019-04-22T03:47:12.056Z,5.50
2019-04-22T03:49:37.097Z,5.28
2019-04-22T03:54:39.561Z,5.30
2019-04-22T03:59:41.415Z,5.00
2019-04-22T04:02:15.714Z,5.15
2019-04-22T04:04:36.822Z,5.00
2019-04-22T04:09:39.244Z,5.17
2019-04-22T04:12:20.729Z,5.28
2019-04-22T04:14:53.675Z,4.90
2019-04-22T04:22:30.705Z,5.05
2019-04-22T04:30:13.705Z,5.22
2019-04-22T04:37:40.669Z,5.30
2019-04-22T04:42:43.551Z,5.28
2019-04-22T04:50:07.080Z,5.25
2019-04-22T04:57:43.538Z,5.35
2019-04-22T05:05:21.136Z,5.53
2019-04-22T05:07:50.142Z,5.62
2019-04-22T05:10:25.629Z,5.35
2019-04-22T05:15:19.075Z,5.40
2019-04-22T05:17:55.475Z,5.30
2019-04-22T05:20:29.455Z,5.53
2019-04-22T05:22:47.448Z,5.80
2019-04-22T05:25:28.459Z,5.42
2019-04-22T05:27:45.380Z,5.50
2019-04-22T05:30:32.668Z,5.97
2019-04-22T05:33:01.485Z,5.50
2019-04-22T05:37:56.599Z,6.15
2019-04-22T05:40:24.067Z,5.87
2019-04-22T05:42:56.333Z,5.75
2019-04-22T05:45:29.459Z,5.80
2019-04-22T05:47:57.554Z,5.30
2019-04-22T05:50:24.542Z,5.90
2019-04-22T05:53:05.178Z,5.62
2019-04-22T05:55:36.033Z,9.50
2019-04-22T05:58:02.792Z,9.38
2019-04-22T06:03:04.039Z,6.40
2019-04-22T06:05:34.326Z,6.15
2019-04-22T06:08:04.158Z,6.28
2019-04-22T06:13:08.215Z,5.55
2019-04-22T06:15:37.236Z,5.35
2019-04-22T06:18:17.577Z,5.08
2019-04-22T06:20:53.993Z,4.95
2019-04-22T06:23:30.142Z,5.45
2019-04-22T06:28:29.032Z,5.37
2019-04-22T06:30:57.332Z,5.20
2019-04-22T06:33:31.635Z,5.75
2019-04-22T06:38:33.992Z,5.60
2019-04-22T06:41:04.274Z,5.42
2019-04-22T06:46:06.776Z,5.12
2019-04-22T06:48:33.056Z,5.53
2019-04-22T06:51:00.170Z,5.28
2019-04-22T06:53:34.442Z,4.90
2019-04-22T06:56:04.843Z,5.12
2019-04-22T06:58:39.898Z,5.03
2019-04-22T07:01:18.058Z,4.80
2019-04-22T07:03:52.299Z,6.28
2019-04-22T07:06:17.599Z,6.95
2019-04-22T07:11:12.479Z,4.62
2019-04-22T07:13:50.234Z,5.22
2019-04-22T07:16:18.674Z,5.20
2019-04-22T07:18:53.287Z,7.58
2019-04-22T07:21:19.717Z,6.22
2019-04-22T07:24:03.168Z,5.65
2019-04-22T07:26:23.056Z,8.45
2019-04-22T07:28:55.077Z,9.25
2019-04-22T07:31:30.521Z,5.85
2019-04-22T07:33:58.302Z,11.08
2019-04-22T07:36:47.407Z,11.03
2019-04-22T07:39:02.080Z,7.10
2019-04-22T07:41:33.131Z,5.25
2019-04-22T07:44:13.110Z,5.78
2019-04-22T07:46:35.021Z,5.55
2019-04-22T07:49:10.791Z,5.22
2019-04-22T07:54:16.294Z,5.37
2019-04-22T07:56:48.677Z,5.10
2019-04-22T07:59:15.297Z,4.20
2019-04-22T08:01:42.270Z,4.80
2019-04-22T08:04:31.433Z,4.30
2019-04-22T08:06:52.305Z,4.17
2019-04-22T08:09:20.295Z,3.87
2019-04-22T08:14:24.632Z,3.95
2019-04-22T08:17:00.975Z,3.70
2019-04-22T08:21:59.981Z,5.55
2019-04-22T08:24:30.516Z,4.40
2019-04-22T08:26:57.950Z,3.50
2019-04-22T08:29:40.797Z,4.20
2019-04-22T08:31:59.121Z,3.83
2019-04-22T08:34:29.580Z,3.67
2019-04-22T08:37:37.081Z,3.50
2019-04-22T08:39:51.512Z,4.10
2019-04-22T08:42:08.317Z,3.90
2019-04-22T08:45:06.231Z,4.10
2019-04-22T08:49:54.965Z,3.80
2019-04-22T08:52:16.399Z,3.60
2019-04-22T08:54:46.130Z,3.47
2019-04-22T08:57:24.174Z,3.50
2019-04-22T08:59:48.994Z,3.65
2019-04-22T09:02:20.199Z,3.77
2019-04-22T09:04:48.070Z,3.77
2019-04-22T09:09:50.652Z,3.58
2019-04-22T09:12:34.571Z,3.80
2019-04-22T09:14:49.246Z,3.75
2019-04-22T09:17:45.336Z,3.30
2019-04-22T09:20:00.299Z,3.72
2019-04-22T09:22:29.190Z,3.92
2019-04-22T09:24:57.232Z,3.42
2019-04-22T09:30:09.489Z,3.45
2019-04-22T09:32:38.875Z,3.80
2019-04-22T09:35:02.649Z,3.67
2019-04-22T09:37:39.276Z,3.60
2019-04-22T09:40:15.589Z,3.60
2019-04-22T09:42:48.725Z,3.85
2019-04-22T09:45:11.321Z,3.10
2019-04-22T09:47:49.259Z,3.52
2019-04-22T09:50:15.257Z,3.50
2019-04-22T09:52:51.560Z,3.75
2019-04-22T09:55:18.004Z,3.58
2019-04-22T09:57:44.939Z,3.60
2019-04-22T10:00:25.495Z,3.85
2019-04-22T10:02:59.257Z,3.58
2019-04-22T10:05:28.924Z,3.98
2019-04-22T10:08:02.778Z,3.47
2019-04-22T10:10:28.158Z,3.65
2019-04-22T10:13:00.252Z,3.12
2019-04-22T10:15:29.181Z,3.50
2019-04-22T10:18:07.297Z,3.20
2019-04-22T10:20:31.667Z,3.02
2019-04-22T10:23:05.456Z,3.20
2019-04-22T10:25:42.830Z,3.00
2019-04-22T10:28:08.827Z,3.12
2019-04-22T10:30:44.548Z,3.40
2019-04-22T10:33:05.793Z,2.75
2019-04-22T10:35:19.900Z,3.15
2019-04-22T10:37:48.137Z,3.27
2019-04-22T10:40:27.982Z,3.30
2019-04-22T10:42:59.021Z,3.37
2019-04-22T10:45:30.235Z,3.27
2019-04-22T10:48:01.541Z,3.00
2019-04-22T10:50:43.055Z,3.27
2019-04-22T10:53:13.370Z,4.55
2019-04-22T10:55:45.673Z,3.50
2019-04-22T10:58:16.843Z,5.33
2019-04-22T11:00:47.348Z,4.08
2019-04-22T11:03:18.151Z,3.62
2019-04-22T11:05:48.415Z,3.70
2019-04-22T11:08:24.288Z,3.37
2019-04-22T11:11:05.818Z,3.40
2019-04-22T11:13:22.113Z,3.05
2019-04-22T11:15:52.952Z,4.20
2019-04-22T11:20:53.576Z,3.62
2019-04-22T11:23:24.692Z,3.20
2019-04-22T11:25:54.387Z,3.62
2019-04-22T11:28:25.445Z,3.62
2019-04-22T11:30:56.301Z,3.25
2019-04-22T11:33:26.714Z,3.65
2019-04-22T11:35:57.562Z,3.30
2019-04-22T11:38:31.011Z,3.35
2019-04-22T11:41:03.486Z,3.60
2019-04-22T11:43:34.478Z,3.50
2019-04-22T11:46:05.151Z,3.77
2019-04-22T11:48:42.387Z,3.70
2019-04-22T11:51:15.965Z,3.45
2019-04-22T11:53:47.084Z,3.45
2019-04-22T11:56:16.888Z,3.77
2019-04-22T11:58:46.961Z,3.62
2019-04-22T12:01:16.985Z,3.80
2019-04-22T12:03:47.845Z,3.65
2019-04-22T12:06:19.755Z,3.70
2019-04-22T12:08:51.693Z,3.35
2019-04-22T12:11:22.893Z,3.40
2019-04-22T12:13:54.006Z,3.60
2019-04-22T12:16:25.331Z,3.15
2019-04-22T12:18:55.754Z,3.22
2019-04-22T12:21:26.696Z,3.62
2019-04-22T12:23:56.902Z,3.77
2019-04-22T12:26:30.618Z,3.80
2019-04-22T12:29:00.683Z,3.80
2019-04-22T12:31:31.474Z,3.37
2019-04-22T12:34:01.562Z,3.52
2019-04-22T12:36:32.489Z,3.50
2019-04-22T12:39:03.264Z,3.30
2019-04-22T12:41:35.944Z,3.30
2019-04-22T12:44:07.353Z,3.35
2019-04-22T12:46:38.361Z,3.65
2019-04-22T12:49:09.912Z,3.42
2019-04-22T12:51:42.876Z,3.60
2019-04-22T12:54:13.114Z,2.98
2019-04-22T12:56:43.982Z,3.40
2019-04-22T12:59:14.012Z,3.35
2019-04-22T13:01:44.741Z,3.02
2019-04-22T13:04:17.586Z,3.45
2019-04-22T13:06:46.136Z,3.80
2019-04-22T13:09:17.767Z,3.30
2019-04-22T13:11:48.822Z,3.80
2019-04-22T13:14:21.015Z,3.40
2019-04-22T13:16:51.190Z,3.17
2019-04-22T13:19:23.461Z,3.00
2019-04-22T13:21:54.599Z,3.47
2019-04-22T13:24:25.997Z,3.15
2019-04-22T13:26:57.086Z,3.45
2019-04-22T13:29:27.644Z,3.35
2019-04-22T13:31:58.595Z,3.30
2019-04-22T13:34:34.785Z,3.30
2019-04-22T13:37:01.155Z,3.40
2019-04-22T13:39:31.278Z,3.55
2019-04-22T13:42:04.611Z,3.05
2019-04-22T13:44:33.531Z,3.05
2019-04-22T13:47:24.008Z,3.20
2019-04-22T13:50:23.634Z,2.70
2019-04-22T13:52:56.270Z,3.05
2019-04-22T13:55:25.466Z,3.40
2019-04-22T13:57:42.493Z,3.52
2019-04-22T14:00:00.373Z,3.20
2019-04-22T14:02:40.247Z,3.47
2019-04-22T14:07:41.189Z,3.25
2019-04-22T14:10:12.134Z,2.85
2019-04-22T14:12:42.670Z,3.58
2019-04-22T14:17:41.345Z,3.30
2019-04-22T14:20:13.134Z,2.80
2019-04-22T14:22:44.296Z,3.58
2019-04-22T14:25:14.642Z,3.30
2019-04-22T14:27:51.351Z,3.50
2019-04-22T14:30:16.776Z,2.60
2019-04-22T14:32:47.757Z,2.62
2019-04-22T14:35:18.518Z,2.92
2019-04-22T14:37:50.145Z,2.92
2019-04-22T14:40:22.318Z,3.20
2019-04-22T14:43:10.913Z,3.40
2019-04-22T14:46:01.689Z,3.35
2019-04-22T14:48:22.701Z,3.42
2019-04-22T14:50:46.972Z,3.45
2019-04-22T14:53:14.453Z,3.55
2019-04-22T14:55:32.416Z,3.92
2019-04-22T14:57:59.258Z,3.62
2019-04-22T15:00:29.629Z,3.30
2019-04-22T15:03:03.690Z,2.90
2019-04-22T15:05:36.396Z,3.27
2019-04-22T15:08:07.569Z,3.98
2019-04-22T15:10:42.226Z,5.22
2019-04-22T15:13:13.469Z,3.80
2019-04-22T15:16:03.009Z,3.27
2019-04-22T15:18:46.027Z,3.42
2019-04-22T15:21:18.794Z,3.05
2019-04-22T15:23:51.080Z,3.30
2019-04-22T15:26:22.327Z,2.72
2019-04-22T15:28:53.515Z,3.02
2019-04-22T15:31:23.718Z,3.00
2019-04-22T15:33:54.405Z,3.15
2019-04-22T15:36:24.457Z,2.85
2019-04-22T15:38:55.327Z,3.05
2019-04-22T15:41:26.592Z,4.47
2019-04-22T15:43:59.717Z,4.00
2019-04-22T15:46:32.094Z,3.00
2019-04-22T15:49:04.179Z,3.10
2019-04-22T15:51:34.806Z,2.77
2019-04-22T15:56:35.195Z,2.95
2019-04-22T15:59:27.285Z,6.80
2019-04-22T16:01:41.039Z,4.50
2019-04-22T16:04:08.784Z,3.12
2019-04-22T16:06:41.114Z,3.02
2019-04-22T16:09:13.150Z,2.72
2019-04-22T16:11:47.714Z,2.77
2019-04-22T16:14:23.888Z,2.90
2019-04-22T16:16:50.560Z,2.58
2019-04-22T16:19:23.218Z,2.72
2019-04-22T16:22:01.181Z,3.10
2019-04-22T16:24:38.254Z,3.12
2019-04-22T16:27:16.583Z,2.70
2019-04-22T16:29:49.727Z,2.65
2019-04-22T16:32:21.259Z,3.25
2019-04-22T16:34:52.423Z,3.08
2019-04-22T16:37:25.049Z,3.30
2019-04-22T16:39:58.774Z,2.62
2019-04-22T16:42:37.848Z,3.30
2019-04-22T16:45:02.002Z,2.92
2019-04-22T16:47:33.333Z,2.60
2019-04-22T16:50:05.748Z,2.80
2019-04-22T16:52:50.112Z,2.80
2019-04-22T16:55:41.005Z,2.65
2019-04-22T16:58:12.564Z,2.77
2019-04-22T17:00:42.842Z,2.67
2019-04-22T17:03:30.821Z,2.85
2019-04-22T17:06:14.361Z,2.62
2019-04-22T17:08:44.506Z,2.45
2019-04-22T17:11:14.185Z,2.45
2019-04-22T17:16:15.972Z,2.60
2019-04-22T17:18:47.131Z,3.33
2019-04-22T17:21:19.476Z,3.27
2019-04-22T17:23:49.859Z,3.52
2019-04-22T17:26:20.753Z,4.08
2019-04-22T17:28:51.319Z,3.27
2019-04-22T17:31:22.703Z,3.02
2019-04-22T17:33:53.028Z,2.83
2019-04-22T17:36:24.325Z,2.60
2019-04-22T17:39:12.852Z,2.85
2019-04-22T17:41:44.987Z,2.50
2019-04-22T17:44:28.823Z,3.27
2019-04-22T17:46:50.920Z,2.45
2019-04-22T17:49:50.845Z,2.60
2019-04-22T17:52:22.755Z,2.80
2019-04-22T17:54:51.828Z,2.77
2019-04-22T17:57:24.174Z,3.92
2019-04-22T18:00:06.831Z,4.85
2019-04-22T18:02:25.094Z,3.02
2019-04-22T18:04:46.560Z,2.67
2019-04-22T18:07:45.778Z,2.70
2019-04-22T18:12:38.268Z,2.62
2019-04-22T18:15:19.443Z,2.77
2019-04-22T18:17:41.116Z,2.60
2019-04-22T18:20:04.744Z,2.62
2019-04-22T18:22:37.196Z,2.60
2019-04-22T18:25:10.650Z,2.83
2019-04-22T18:28:07.093Z,2.40
2019-04-22T18:30:14.874Z,2.70
2019-04-22T18:32:50.487Z,2.55
2019-04-22T18:35:20.378Z,2.70
2019-04-22T18:37:55.774Z,2.85
2019-04-22T18:40:29.301Z,2.60
2019-04-22T18:42:56.948Z,2.50
2019-04-22T18:47:55.037Z,2.70
2019-04-22T18:50:41.422Z,2.98
2019-04-22T18:53:51.883Z,2.70
2019-04-22T18:56:31.479Z,2.95
2019-04-22T18:58:49.019Z,2.98
2019-04-22T19:01:12.359Z,3.20
2019-04-22T19:03:54.156Z,2.92
2019-04-22T19:09:10.602Z,2.70
2019-04-22T19:11:43.033Z,2.98
2019-04-22T19:14:35.059Z,3.08
2019-04-22T19:16:46.225Z,2.80
2019-04-22T19:19:29.793Z,3.22
2019-04-22T19:21:50.026Z,3.70
2019-04-22T19:24:19.516Z,3.52
2019-04-22T19:29:36.832Z,2.95
2019-04-22T19:32:06.910Z,3.10
2019-04-22T19:34:42.850Z,3.45
2019-04-22T19:37:13.177Z,3.40
2019-04-22T19:39:52.862Z,3.15
2019-04-22T19:42:25.633Z,3.20
2019-04-22T19:50:45.077Z,3.67
2019-04-22T19:53:19.640Z,3.10
2019-04-22T19:55:46.506Z,3.35
2019-04-22T19:58:27.777Z,3.17
2019-04-22T20:01:16.394Z,3.15
2019-04-22T20:04:12.064Z,3.80
2019-04-22T20:06:45.514Z,3.55
2019-04-22T20:09:22.509Z,3.33
2019-04-22T20:11:44.936Z,3.30
2019-04-22T20:14:24.156Z,5.37
2019-04-22T20:17:07.593Z,6.60
2019-04-22T20:22:21.690Z,4.00
2019-04-22T20:24:44.851Z,3.70
2019-04-22T20:27:26.697Z,3.92
2019-04-22T20:29:58.167Z,3.80
2019-04-22T20:32:37.667Z,4.00
2019-04-22T20:35:09.367Z,4.35
2019-04-22T20:37:44.294Z,3.95
2019-04-22T20:40:10.745Z,3.77
2019-04-22T20:42:48.701Z,4.15
2019-04-22T20:45:29.206Z,3.70
2019-04-22T20:47:45.486Z,4.55
2019-04-22T20:50:24.987Z,4.25
2019-04-22T20:53:00.550Z,4.17
2019-04-22T20:55:28.074Z,4.28
2019-04-22T20:58:10.186Z,3.42
2019-04-22T21:00:26.602Z,3.52
2019-04-22T21:02:59.781Z,4.00
2019-04-22T21:05:34.598Z,3.87
2019-04-22T21:08:19.420Z,4.40
2019-04-22T21:10:45.385Z,4.50
2019-04-22T21:13:20.754Z,4.12
2019-04-22T21:15:57.803Z,4.60
2019-04-22T21:18:24.781Z,4.10
2019-04-22T21:21:02.316Z,3.90
2019-04-22T21:23:29.726Z,4.17
2019-04-22T21:26:11.547Z,4.65
2019-04-22T21:28:41.432Z,4.40
2019-04-22T21:31:16.712Z,4.33
2019-04-22T21:33:48.904Z,4.15
2019-04-22T21:36:20.670Z,4.37
2019-04-22T21:38:51.343Z,4.37
2019-04-22T21:41:23.277Z,4.30
2019-04-22T21:43:53.533Z,4.28
2019-04-22T21:46:22.730Z,3.90
2019-04-22T21:48:59.791Z,3.80
2019-04-22T21:51:31.660Z,4.17
2019-04-22T21:54:04.269Z,3.90
2019-04-22T21:56:45.099Z,4.17
2019-04-22T21:59:06.609Z,3.85
2019-04-22T22:01:50.091Z,4.40
2019-04-22T22:04:18.963Z,4.85
2019-04-22T22:06:39.663Z,4.75
2019-04-22T22:09:22.871Z,4.12
2019-04-22T22:12:05.149Z,4.47
2019-04-22T22:14:40.067Z,4.05
2019-04-22T22:17:02.828Z,4.12
2019-04-22T22:19:43.871Z,4.10
2019-04-22T22:22:39.478Z,4.53
2019-04-22T22:24:52.581Z,4.22
2019-04-22T22:27:28.279Z,4.50
2019-04-22T22:30:06.824Z,4.03
2019-04-22T22:32:30.279Z,4.25
2019-04-22T22:34:57.255Z,3.90
2019-04-22T22:37:17.011Z,4.30
2019-04-22T22:39:51.288Z,4.35
2019-04-22T22:42:22.219Z,4.28
2019-04-22T22:44:48.135Z,4.00
2019-04-22T22:47:36.504Z,4.20
2019-04-22T22:50:09.005Z,4.62
2019-04-22T22:55:10.483Z,4.28
2019-04-22T22:57:46.119Z,4.17
2019-04-22T23:00:11.501Z,4.60
2019-04-22T23:03:00.779Z,4.75
2019-04-22T23:05:29.025Z,4.53
2019-04-22T23:07:55.518Z,4.08
2019-04-22T23:10:26.787Z,4.03
2019-04-22T23:12:55.584Z,4.35
2019-04-22T23:15:20.349Z,4.80
2019-04-22T23:17:39.037Z,4.53
2019-04-22T23:20:09.675Z,4.97
2019-04-22T23:23:03.846Z,4.58
2019-04-22T23:25:33.349Z,4.42
2019-04-22T23:28:16.049Z,4.67
2019-04-22T23:30:57.924Z,4.55
2019-04-22T23:33:43.892Z,4.58
2019-04-22T23:36:13.673Z,4.90
2019-04-22T23:38:56.633Z,4.80
2019-04-22T23:41:46.433Z,4.33
2019-04-22T23:44:13.481Z,4.33
2019-04-22T23:46:44.011Z,4.70
2019-04-22T23:49:18.015Z,4.20
2019-04-22T23:51:55.538Z,4.55
2019-04-22T23:54:29.107Z,4.35
2019-04-22T23:56:52.531Z,4.33
2019-04-22T23:59:45.979Z,4.47
